sensor_id;sensor_type;location;lat;lon;timestamp;temperature;humidity
50548;DHT22;38013;48.810;8.818;2023-04-15T00:01:10;5.80;59.90
50548;DHT22;38013;48.810;8.818;2023-04-15T00:03:38;5.70;60.00
50548;DHT22;38013;48.810;8.818;2023-04-15T00:06:05;5.70;60.00
50548;DHT22;38013;48.810;8.818;2023-04-15T00:08:33;5.70;60.10
50548;DHT22;38013;48.810;8.818;2023-04-15T00:10:59;5.60;60.10
50548;DHT22;38013;48.810;8.818;2023-04-15T00:13:28;5.60;60.10
50548;DHT22;38013;48.810;8.818;2023-04-15T00:15:55;5.60;60.70
50548;DHT22;38013;48.810;8.818;2023-04-15T00:18:23;5.60;60.10
50548;DHT22;38013;48.810;8.818;2023-04-15T00:20:50;5.50;60.30
50548;DHT22;38013;48.810;8.818;2023-04-15T00:23:18;5.50;60.30
50548;DHT22;38013;48.810;8.818;2023-04-15T00:25:45;5.50;60.30
50548;DHT22;38013;48.810;8.818;2023-04-15T00:28:12;5.50;60.30
50548;DHT22;38013;48.810;8.818;2023-04-15T00:30:39;5.40;60.30
50548;DHT22;38013;48.810;8.818;2023-04-15T00:33:06;5.40;60.50
50548;DHT22;38013;48.810;8.818;2023-04-15T00:35:33;5.40;60.50
50548;DHT22;38013;48.810;8.818;2023-04-15T00:38:03;5.30;60.60
50548;DHT22;38013;48.810;8.818;2023-04-15T00:40:30;5.40;60.70
50548;DHT22;38013;48.810;8.818;2023-04-15T00:42:57;5.30;60.70
50548;DHT22;38013;48.810;8.818;2023-04-15T00:45:24;5.30;60.80
50548;DHT22;38013;48.810;8.818;2023-04-15T00:47:52;5.30;61.00
50548;DHT22;38013;48.810;8.818;2023-04-15T00:50:19;5.20;60.80
50548;DHT22;38013;48.810;8.818;2023-04-15T00:52:47;5.20;60.80
50548;DHT22;38013;48.810;8.818;2023-04-15T00:55:14;5.20;60.90
50548;DHT22;38013;48.810;8.818;2023-04-15T00:57:41;5.20;60.90
50548;DHT22;38013;48.810;8.818;2023-04-15T01:00:09;5.10;60.80
50548;DHT22;38013;48.810;8.818;2023-04-15T01:02:37;5.10;60.90
50548;DHT22;38013;48.810;8.818;2023-04-15T01:05:06;5.10;60.90
50548;DHT22;38013;48.810;8.818;2023-04-15T01:07:34;5.10;61.00
50548;DHT22;38013;48.810;8.818;2023-04-15T01:10:02;5.10;61.10
50548;DHT22;38013;48.810;8.818;2023-04-15T01:12:31;5.00;61.30
50548;DHT22;38013;48.810;8.818;2023-04-15T01:14:59;5.00;61.40
50548;DHT22;38013;48.810;8.818;2023-04-15T01:17:26;5.00;61.40
50548;DHT22;38013;48.810;8.818;2023-04-15T01:19:55;5.00;61.50
50548;DHT22;38013;48.810;8.818;2023-04-15T01:22:24;5.00;61.60
50548;DHT22;38013;48.810;8.818;2023-04-15T01:25:08;4.90;61.50
50548;DHT22;38013;48.810;8.818;2023-04-15T01:27:38;4.90;62.40
50548;DHT22;38013;48.810;8.818;2023-04-15T01:30:07;4.90;61.70
50548;DHT22;38013;48.810;8.818;2023-04-15T01:32:35;4.90;61.60
50548;DHT22;38013;48.810;8.818;2023-04-15T01:35:03;4.80;61.60
50548;DHT22;38013;48.810;8.818;2023-04-15T01:37:31;4.80;61.80
50548;DHT22;38013;48.810;8.818;2023-04-15T01:39:58;4.80;61.90
50548;DHT22;38013;48.810;8.818;2023-04-15T01:42:25;4.80;61.90
50548;DHT22;38013;48.810;8.818;2023-04-15T01:44:53;4.80;62.00
50548;DHT22;38013;48.810;8.818;2023-04-15T01:47:20;4.80;62.00
50548;DHT22;38013;48.810;8.818;2023-04-15T01:49:47;4.80;62.10
50548;DHT22;38013;48.810;8.818;2023-04-15T01:52:15;4.70;62.70
50548;DHT22;38013;48.810;8.818;2023-04-15T01:54:41;4.70;62.20
50548;DHT22;38013;48.810;8.818;2023-04-15T01:57:10;4.70;62.30
50548;DHT22;38013;48.810;8.818;2023-04-15T01:59:37;4.70;62.40
50548;DHT22;38013;48.810;8.818;2023-04-15T02:02:04;4.70;62.60
50548;DHT22;38013;48.810;8.818;2023-04-15T02:04:31;4.70;62.70
50548;DHT22;38013;48.810;8.818;2023-04-15T02:07:00;4.70;62.80
50548;DHT22;38013;48.810;8.818;2023-04-15T02:09:27;4.70;62.90
50548;DHT22;38013;48.810;8.818;2023-04-15T02:11:54;4.70;63.00
50548;DHT22;38013;48.810;8.818;2023-04-15T02:14:23;4.70;63.10
50548;DHT22;38013;48.810;8.818;2023-04-15T02:16:50;4.80;63.20
50548;DHT22;38013;48.810;8.818;2023-04-15T02:19:17;4.80;63.20
50548;DHT22;38013;48.810;8.818;2023-04-15T02:21:44;4.80;63.30
50548;DHT22;38013;48.810;8.818;2023-04-15T02:24:11;4.80;63.10
50548;DHT22;38013;48.810;8.818;2023-04-15T02:26:40;4.80;63.00
50548;DHT22;38013;48.810;8.818;2023-04-15T02:29:07;4.80;63.00
50548;DHT22;38013;48.810;8.818;2023-04-15T02:31:33;4.80;63.10
50548;DHT22;38013;48.810;8.818;2023-04-15T02:34:05;4.80;63.10
50548;DHT22;38013;48.810;8.818;2023-04-15T02:36:32;4.80;63.20
50548;DHT22;38013;48.810;8.818;2023-04-15T02:39:00;4.80;63.30
50548;DHT22;38013;48.810;8.818;2023-04-15T02:41:28;4.70;63.30
50548;DHT22;38013;48.810;8.818;2023-04-15T02:43:56;4.70;63.30
50548;DHT22;38013;48.810;8.818;2023-04-15T02:46:23;4.70;63.30
50548;DHT22;38013;48.810;8.818;2023-04-15T02:48:50;4.70;63.30
50548;DHT22;38013;48.810;8.818;2023-04-15T02:51:20;4.70;63.20
50548;DHT22;38013;48.810;8.818;2023-04-15T02:53:51;4.70;63.10
50548;DHT22;38013;48.810;8.818;2023-04-15T02:56:18;4.70;63.00
50548;DHT22;38013;48.810;8.818;2023-04-15T02:58:46;4.60;62.90
50548;DHT22;38013;48.810;8.818;2023-04-15T03:01:15;4.60;63.00
50548;DHT22;38013;48.810;8.818;2023-04-15T03:03:42;4.50;63.00
50548;DHT22;38013;48.810;8.818;2023-04-15T03:06:10;4.50;63.00
50548;DHT22;38013;48.810;8.818;2023-04-15T03:08:37;4.50;63.10
50548;DHT22;38013;48.810;8.818;2023-04-15T03:11:04;4.40;63.20
50548;DHT22;38013;48.810;8.818;2023-04-15T03:13:32;4.40;63.40
50548;DHT22;38013;48.810;8.818;2023-04-15T03:16:07;4.40;63.50
50548;DHT22;38013;48.810;8.818;2023-04-15T03:18:34;4.40;63.60
50548;DHT22;38013;48.810;8.818;2023-04-15T03:21:02;4.40;63.60
50548;DHT22;38013;48.810;8.818;2023-04-15T03:23:33;4.30;63.50
50548;DHT22;38013;48.810;8.818;2023-04-15T03:26:02;4.30;63.40
50548;DHT22;38013;48.810;8.818;2023-04-15T03:28:31;4.30;63.50
50548;DHT22;38013;48.810;8.818;2023-04-15T03:30:59;4.20;63.50
50548;DHT22;38013;48.810;8.818;2023-04-15T03:33:27;4.20;63.60
50548;DHT22;38013;48.810;8.818;2023-04-15T03:35:55;4.20;63.60
50548;DHT22;38013;48.810;8.818;2023-04-15T03:38:22;4.20;63.60
50548;DHT22;38013;48.810;8.818;2023-04-15T03:40:49;4.10;64.20
50548;DHT22;38013;48.810;8.818;2023-04-15T03:43:16;4.10;63.60
50548;DHT22;38013;48.810;8.818;2023-04-15T03:45:42;4.10;63.70
50548;DHT22;38013;48.810;8.818;2023-04-15T03:48:09;4.10;63.90
50548;DHT22;38013;48.810;8.818;2023-04-15T03:50:44;4.10;64.00
50548;DHT22;38013;48.810;8.818;2023-04-15T03:53:11;4.10;64.00
50548;DHT22;38013;48.810;8.818;2023-04-15T03:55:38;4.00;63.90
50548;DHT22;38013;48.810;8.818;2023-04-15T03:58:05;4.00;64.10
50548;DHT22;38013;48.810;8.818;2023-04-15T04:00:32;4.00;64.10
50548;DHT22;38013;48.810;8.818;2023-04-15T04:02:59;4.00;64.20
50548;DHT22;38013;48.810;8.818;2023-04-15T04:05:26;4.00;64.40
50548;DHT22;38013;48.810;8.818;2023-04-15T04:07:53;4.00;64.40
50548;DHT22;38013;48.810;8.818;2023-04-15T04:10:20;4.00;64.40
50548;DHT22;38013;48.810;8.818;2023-04-15T04:12:48;4.00;64.50
50548;DHT22;38013;48.810;8.818;2023-04-15T04:15:15;3.90;64.50
50548;DHT22;38013;48.810;8.818;2023-04-15T04:17:42;4.00;64.60
50548;DHT22;38013;48.810;8.818;2023-04-15T04:20:10;4.00;64.50
50548;DHT22;38013;48.810;8.818;2023-04-15T04:22:38;3.90;64.60
50548;DHT22;38013;48.810;8.818;2023-04-15T04:25:09;3.90;64.40
50548;DHT22;38013;48.810;8.818;2023-04-15T04:27:37;3.90;64.40
50548;DHT22;38013;48.810;8.818;2023-04-15T04:30:05;3.90;64.20
50548;DHT22;38013;48.810;8.818;2023-04-15T04:32:45;3.90;64.30
50548;DHT22;38013;48.810;8.818;2023-04-15T04:35:24;3.90;64.20
50548;DHT22;38013;48.810;8.818;2023-04-15T04:37:56;3.90;64.40
50548;DHT22;38013;48.810;8.818;2023-04-15T04:40:24;3.90;64.40
50548;DHT22;38013;48.810;8.818;2023-04-15T04:42:53;3.80;64.30
50548;DHT22;38013;48.810;8.818;2023-04-15T04:45:20;3.80;64.30
50548;DHT22;38013;48.810;8.818;2023-04-15T04:47:48;3.80;64.30
50548;DHT22;38013;48.810;8.818;2023-04-15T04:50:15;3.80;64.20
50548;DHT22;38013;48.810;8.818;2023-04-15T04:52:43;3.80;64.30
50548;DHT22;38013;48.810;8.818;2023-04-15T04:55:10;3.80;64.40
50548;DHT22;38013;48.810;8.818;2023-04-15T04:57:38;3.80;64.60
50548;DHT22;38013;48.810;8.818;2023-04-15T05:00:06;3.80;64.70
50548;DHT22;38013;48.810;8.818;2023-04-15T05:02:38;3.80;64.80
50548;DHT22;38013;48.810;8.818;2023-04-15T05:05:14;3.80;64.80
50548;DHT22;38013;48.810;8.818;2023-04-15T05:07:42;3.80;65.30
50548;DHT22;38013;48.810;8.818;2023-04-15T05:10:12;3.80;64.80
50548;DHT22;38013;48.810;8.818;2023-04-15T05:12:47;3.80;65.00
50548;DHT22;38013;48.810;8.818;2023-04-15T05:15:17;3.80;64.80
50548;DHT22;38013;48.810;8.818;2023-04-15T05:17:46;3.80;64.90
50548;DHT22;38013;48.810;8.818;2023-04-15T05:20:14;3.80;64.90
50548;DHT22;38013;48.810;8.818;2023-04-15T05:22:42;3.80;65.00
50548;DHT22;38013;48.810;8.818;2023-04-15T05:25:13;3.80;65.10
50548;DHT22;38013;48.810;8.818;2023-04-15T05:27:40;3.80;65.10
50548;DHT22;38013;48.810;8.818;2023-04-15T05:30:08;3.90;65.20
50548;DHT22;38013;48.810;8.818;2023-04-15T05:32:39;3.90;65.30
50548;DHT22;38013;48.810;8.818;2023-04-15T05:35:10;3.90;65.30
50548;DHT22;38013;48.810;8.818;2023-04-15T05:37:38;3.90;65.50
50548;DHT22;38013;48.810;8.818;2023-04-15T05:40:07;3.90;65.30
50548;DHT22;38013;48.810;8.818;2023-04-15T05:42:38;3.90;65.50
50548;DHT22;38013;48.810;8.818;2023-04-15T05:45:07;3.90;65.50
50548;DHT22;38013;48.810;8.818;2023-04-15T05:47:35;3.90;65.70
50548;DHT22;38013;48.810;8.818;2023-04-15T05:50:04;4.00;65.80
50548;DHT22;38013;48.810;8.818;2023-04-15T05:52:36;4.00;66.00
50548;DHT22;38013;48.810;8.818;2023-04-15T05:55:04;4.10;66.00
50548;DHT22;38013;48.810;8.818;2023-04-15T05:57:35;4.10;66.20
50548;DHT22;38013;48.810;8.818;2023-04-15T06:00:07;4.10;66.40
50548;DHT22;38013;48.810;8.818;2023-04-15T06:02:37;4.20;66.40
50548;DHT22;38013;48.810;8.818;2023-04-15T06:05:05;4.20;66.80
50548;DHT22;38013;48.810;8.818;2023-04-15T06:07:41;4.20;66.10
50548;DHT22;38013;48.810;8.818;2023-04-15T06:10:10;4.30;66.10
50548;DHT22;38013;48.810;8.818;2023-04-15T06:12:37;4.30;66.20
50548;DHT22;38013;48.810;8.818;2023-04-15T06:15:05;4.40;66.40
50548;DHT22;38013;48.810;8.818;2023-04-15T06:17:37;4.40;66.50
50548;DHT22;38013;48.810;8.818;2023-04-15T06:20:04;4.50;66.40
50548;DHT22;38013;48.810;8.818;2023-04-15T06:22:32;4.60;66.40
50548;DHT22;38013;48.810;8.818;2023-04-15T06:24:59;4.60;66.40
50548;DHT22;38013;48.810;8.818;2023-04-15T06:27:27;4.70;66.50
50548;DHT22;38013;48.810;8.818;2023-04-15T06:29:54;4.70;66.50
50548;DHT22;38013;48.810;8.818;2023-04-15T06:32:22;4.80;66.60
50548;DHT22;38013;48.810;8.818;2023-04-15T06:34:50;4.90;66.70
50548;DHT22;38013;48.810;8.818;2023-04-15T06:37:20;4.90;66.70
50548;DHT22;38013;48.810;8.818;2023-04-15T06:39:48;5.00;66.80
50548;DHT22;38013;48.810;8.818;2023-04-15T06:42:16;5.10;66.60
50548;DHT22;38013;48.810;8.818;2023-04-15T06:44:43;5.20;66.60
50548;DHT22;38013;48.810;8.818;2023-04-15T06:47:11;5.30;66.50
50548;DHT22;38013;48.810;8.818;2023-04-15T06:49:41;5.50;66.70
50548;DHT22;38013;48.810;8.818;2023-04-15T06:52:09;5.50;66.70
50548;DHT22;38013;48.810;8.818;2023-04-15T06:54:37;5.60;66.80
50548;DHT22;38013;48.810;8.818;2023-04-15T06:57:05;5.70;67.10
50548;DHT22;38013;48.810;8.818;2023-04-15T06:59:33;5.80;67.30
50548;DHT22;38013;48.810;8.818;2023-04-15T07:02:00;6.00;67.30
50548;DHT22;38013;48.810;8.818;2023-04-15T07:04:27;6.10;67.30
50548;DHT22;38013;48.810;8.818;2023-04-15T07:06:55;6.30;67.30
50548;DHT22;38013;48.810;8.818;2023-04-15T07:09:23;6.40;67.20
50548;DHT22;38013;48.810;8.818;2023-04-15T07:12:21;6.50;67.20
50548;DHT22;38013;48.810;8.818;2023-04-15T07:14:50;6.70;68.00
50548;DHT22;38013;48.810;8.818;2023-04-15T07:17:17;6.80;67.00
50548;DHT22;38013;48.810;8.818;2023-04-15T07:19:44;7.00;67.00
50548;DHT22;38013;48.810;8.818;2023-04-15T07:22:12;7.10;67.00
50548;DHT22;38013;48.810;8.818;2023-04-15T07:24:39;7.30;66.90
50548;DHT22;38013;48.810;8.818;2023-04-15T07:27:10;7.50;66.90
50548;DHT22;38013;48.810;8.818;2023-04-15T07:29:37;7.70;66.90
50548;DHT22;38013;48.810;8.818;2023-04-15T07:32:05;7.80;66.90
50548;DHT22;38013;48.810;8.818;2023-04-15T07:34:33;8.00;66.90
50548;DHT22;38013;48.810;8.818;2023-04-15T07:37:00;8.20;66.80
50548;DHT22;38013;48.810;8.818;2023-04-15T07:39:28;8.40;66.80
50548;DHT22;38013;48.810;8.818;2023-04-15T07:41:55;8.60;66.60
50548;DHT22;38013;48.810;8.818;2023-04-15T07:44:22;8.80;66.50
50548;DHT22;38013;48.810;8.818;2023-04-15T07:46:51;9.00;66.40
50548;DHT22;38013;48.810;8.818;2023-04-15T07:49:18;9.20;66.00
50548;DHT22;38013;48.810;8.818;2023-04-15T07:51:47;9.40;66.00
50548;DHT22;38013;48.810;8.818;2023-04-15T07:54:16;9.60;65.80
50548;DHT22;38013;48.810;8.818;2023-04-15T07:56:44;9.80;65.60
50548;DHT22;38013;48.810;8.818;2023-04-15T07:59:12;10.00;65.50
50548;DHT22;38013;48.810;8.818;2023-04-15T08:01:44;10.20;65.50
50548;DHT22;38013;48.810;8.818;2023-04-15T08:04:11;10.40;65.50
50548;DHT22;38013;48.810;8.818;2023-04-15T08:06:39;10.60;65.30
50548;DHT22;38013;48.810;8.818;2023-04-15T08:09:06;10.80;65.10
50548;DHT22;38013;48.810;8.818;2023-04-15T08:11:34;11.00;64.80
50548;DHT22;38013;48.810;8.818;2023-04-15T08:14:02;11.20;64.50
50548;DHT22;38013;48.810;8.818;2023-04-15T08:16:30;11.40;64.50
50548;DHT22;38013;48.810;8.818;2023-04-15T08:18:59;11.60;64.10
50548;DHT22;38013;48.810;8.818;2023-04-15T08:21:30;11.70;63.50
50548;DHT22;38013;48.810;8.818;2023-04-15T08:24:04;11.90;63.00
50548;DHT22;38013;48.810;8.818;2023-04-15T08:26:33;12.10;62.90
50548;DHT22;38013;48.810;8.818;2023-04-15T08:29:00;12.30;62.00
50548;DHT22;38013;48.810;8.818;2023-04-15T08:31:30;12.40;60.90
50548;DHT22;38013;48.810;8.818;2023-04-15T08:33:58;12.60;60.20
50548;DHT22;38013;48.810;8.818;2023-04-15T08:36:27;12.70;59.50
50548;DHT22;38013;48.810;8.818;2023-04-15T08:38:55;12.90;58.60
50548;DHT22;38013;48.810;8.818;2023-04-15T08:41:26;13.00;57.90
50548;DHT22;38013;48.810;8.818;2023-04-15T08:44:04;13.10;57.10
50548;DHT22;38013;48.810;8.818;2023-04-15T08:46:32;13.20;57.20
50548;DHT22;38013;48.810;8.818;2023-04-15T08:49:03;13.30;56.80
50548;DHT22;38013;48.810;8.818;2023-04-15T08:51:42;13.40;56.10
50548;DHT22;38013;48.810;8.818;2023-04-15T08:54:14;13.50;56.00
50548;DHT22;38013;48.810;8.818;2023-04-15T08:56:41;13.60;55.70
50548;DHT22;38013;48.810;8.818;2023-04-15T08:59:09;13.80;55.30
50548;DHT22;38013;48.810;8.818;2023-04-15T09:01:37;13.80;54.50
50548;DHT22;38013;48.810;8.818;2023-04-15T09:04:07;13.90;54.40
50548;DHT22;38013;48.810;8.818;2023-04-15T09:06:34;14.00;54.20
50548;DHT22;38013;48.810;8.818;2023-04-15T09:09:11;14.00;54.20
50548;DHT22;38013;48.810;8.818;2023-04-15T09:11:41;14.10;53.70
50548;DHT22;38013;48.810;8.818;2023-04-15T09:14:09;14.20;53.70
50548;DHT22;38013;48.810;8.818;2023-04-15T09:16:56;14.20;53.80
50548;DHT22;38013;48.810;8.818;2023-04-15T09:19:27;14.30;52.60
50548;DHT22;38013;48.810;8.818;2023-04-15T09:22:04;14.30;53.40
50548;DHT22;38013;48.810;8.818;2023-04-15T09:24:39;14.40;53.10
50548;DHT22;38013;48.810;8.818;2023-04-15T09:27:08;14.50;53.10
50548;DHT22;38013;48.810;8.818;2023-04-15T09:29:41;14.60;52.40
50548;DHT22;38013;48.810;8.818;2023-04-15T09:32:15;14.60;53.10
50548;DHT22;38013;48.810;8.818;2023-04-15T09:34:47;14.70;51.90
50548;DHT22;38013;48.810;8.818;2023-04-15T09:37:15;14.90;52.50
50548;DHT22;38013;48.810;8.818;2023-04-15T09:39:57;15.00;52.40
50548;DHT22;38013;48.810;8.818;2023-04-15T09:42:25;15.10;52.40
50548;DHT22;38013;48.810;8.818;2023-04-15T09:45:08;15.30;52.30
50548;DHT22;38013;48.810;8.818;2023-04-15T09:47:38;15.40;51.30
50548;DHT22;38013;48.810;8.818;2023-04-15T09:50:07;15.50;51.50
50548;DHT22;38013;48.810;8.818;2023-04-15T09:52:42;15.60;51.00
50548;DHT22;38013;48.810;8.818;2023-04-15T09:55:13;15.80;50.20
50548;DHT22;38013;48.810;8.818;2023-04-15T09:57:43;15.80;50.10
50548;DHT22;38013;48.810;8.818;2023-04-15T10:00:13;16.00;50.00
50548;DHT22;38013;48.810;8.818;2023-04-15T10:02:42;16.10;49.70
50548;DHT22;38013;48.810;8.818;2023-04-15T10:05:13;16.20;49.10
50548;DHT22;38013;48.810;8.818;2023-04-15T10:07:41;16.20;48.70
50548;DHT22;38013;48.810;8.818;2023-04-15T10:10:11;16.20;48.40
50548;DHT22;38013;48.810;8.818;2023-04-15T10:12:41;16.30;48.40
50548;DHT22;38013;48.810;8.818;2023-04-15T10:15:16;16.30;48.30
50548;DHT22;38013;48.810;8.818;2023-04-15T10:17:55;16.30;48.00
50548;DHT22;38013;48.810;8.818;2023-04-15T10:20:31;16.40;47.90
50548;DHT22;38013;48.810;8.818;2023-04-15T10:23:00;16.40;47.70
50548;DHT22;38013;48.810;8.818;2023-04-15T10:25:32;16.40;47.10
50548;DHT22;38013;48.810;8.818;2023-04-15T10:28:02;16.30;47.60
50548;DHT22;38013;48.810;8.818;2023-04-15T10:30:31;16.30;47.90
50548;DHT22;38013;48.810;8.818;2023-04-15T10:33:03;16.30;46.80
50548;DHT22;38013;48.810;8.818;2023-04-15T10:35:37;16.40;46.60
50548;DHT22;38013;48.810;8.818;2023-04-15T10:38:36;16.40;46.60
50548;DHT22;38013;48.810;8.818;2023-04-15T10:41:23;16.40;47.20
50548;DHT22;38013;48.810;8.818;2023-04-15T10:44:03;16.30;46.50
50548;DHT22;38013;48.810;8.818;2023-04-15T10:46:41;16.30;45.50
50548;DHT22;38013;48.810;8.818;2023-04-15T10:49:14;16.30;44.80
50548;DHT22;38013;48.810;8.818;2023-04-15T10:51:58;16.20;45.80
50548;DHT22;38013;48.810;8.818;2023-04-15T10:59:38;16.10;46.10
50548;DHT22;38013;48.810;8.818;2023-04-15T11:03:05;16.00;45.60
50548;DHT22;38013;48.810;8.818;2023-04-15T11:05:53;15.90;46.20
50548;DHT22;38013;48.810;8.818;2023-04-15T11:08:55;15.90;45.90
50548;DHT22;38013;48.810;8.818;2023-04-15T11:14:39;15.70;46.40
50548;DHT22;38013;48.810;8.818;2023-04-15T11:17:07;15.70;47.40
50548;DHT22;38013;48.810;8.818;2023-04-15T11:19:36;15.60;47.70
50548;DHT22;38013;48.810;8.818;2023-04-15T11:22:10;15.70;47.60
50548;DHT22;38013;48.810;8.818;2023-04-15T11:24:46;15.70;47.30
50548;DHT22;38013;48.810;8.818;2023-04-15T11:27:21;15.70;46.70
50548;DHT22;38013;48.810;8.818;2023-04-15T11:29:49;15.70;47.60
50548;DHT22;38013;48.810;8.818;2023-04-15T11:32:21;15.80;47.90
50548;DHT22;38013;48.810;8.818;2023-04-15T11:35:02;15.80;47.40
50548;DHT22;38013;48.810;8.818;2023-04-15T11:37:31;15.80;45.70
50548;DHT22;38013;48.810;8.818;2023-04-15T11:40:02;15.80;46.90
50548;DHT22;38013;48.810;8.818;2023-04-15T11:42:33;15.80;47.40
50548;DHT22;38013;48.810;8.818;2023-04-15T11:45:15;15.80;47.90
50548;DHT22;38013;48.810;8.818;2023-04-15T11:47:52;15.80;48.10
50548;DHT22;38013;48.810;8.818;2023-04-15T11:50:21;15.80;48.30
50548;DHT22;38013;48.810;8.818;2023-04-15T11:52:58;15.90;49.00
50548;DHT22;38013;48.810;8.818;2023-04-15T11:55:27;15.90;49.70
50548;DHT22;38013;48.810;8.818;2023-04-15T11:58:07;16.00;48.60
50548;DHT22;38013;48.810;8.818;2023-04-15T12:00:51;16.10;48.40
50548;DHT22;38013;48.810;8.818;2023-04-15T12:06:19;16.30;47.40
50548;DHT22;38013;48.810;8.818;2023-04-15T12:14:32;16.40;45.00
50548;DHT22;38013;48.810;8.818;2023-04-15T12:17:00;16.30;45.50
50548;DHT22;38013;48.810;8.818;2023-04-15T12:19:39;16.30;46.40
50548;DHT22;38013;48.810;8.818;2023-04-15T12:22:14;16.20;46.20
50548;DHT22;38013;48.810;8.818;2023-04-15T12:24:43;16.20;47.50
50548;DHT22;38013;48.810;8.818;2023-04-15T12:27:15;16.10;47.10
50548;DHT22;38013;48.810;8.818;2023-04-15T12:29:43;16.10;46.20
50548;DHT22;38013;48.810;8.818;2023-04-15T12:32:12;16.10;46.70
50548;DHT22;38013;48.810;8.818;2023-04-15T12:34:54;16.10;47.00
50548;DHT22;38013;48.810;8.818;2023-04-15T12:37:24;16.10;47.20
50548;DHT22;38013;48.810;8.818;2023-04-15T12:39:52;16.10;48.20
50548;DHT22;38013;48.810;8.818;2023-04-15T12:42:21;16.20;46.60
50548;DHT22;38013;48.810;8.818;2023-04-15T12:44:49;16.40;46.00
50548;DHT22;38013;48.810;8.818;2023-04-15T12:47:17;16.50;45.20
50548;DHT22;38013;48.810;8.818;2023-04-15T12:49:47;16.50;44.40
50548;DHT22;38013;48.810;8.818;2023-04-15T12:52:15;16.60;43.50
50548;DHT22;38013;48.810;8.818;2023-04-15T12:54:42;16.50;43.00
50548;DHT22;38013;48.810;8.818;2023-04-15T12:57:10;16.50;43.50
50548;DHT22;38013;48.810;8.818;2023-04-15T12:59:38;16.40;43.60
50548;DHT22;38013;48.810;8.818;2023-04-15T13:02:09;16.40;44.80
50548;DHT22;38013;48.810;8.818;2023-04-15T13:04:39;16.40;44.20
50548;DHT22;38013;48.810;8.818;2023-04-15T13:07:11;16.40;44.70
50548;DHT22;38013;48.810;8.818;2023-04-15T13:09:40;16.50;44.40
50548;DHT22;38013;48.810;8.818;2023-04-15T13:12:10;16.50;44.60
50548;DHT22;38013;48.810;8.818;2023-04-15T13:14:39;16.40;45.70
50548;DHT22;38013;48.810;8.818;2023-04-15T13:17:07;16.30;46.90
50548;DHT22;38013;48.810;8.818;2023-04-15T13:19:35;16.20;47.60
50548;DHT22;38013;48.810;8.818;2023-04-15T13:22:02;16.10;48.10
50548;DHT22;38013;48.810;8.818;2023-04-15T13:24:29;16.00;48.20
50548;DHT22;38013;48.810;8.818;2023-04-15T13:26:56;15.90;48.90
50548;DHT22;38013;48.810;8.818;2023-04-15T13:29:24;15.70;48.90
50548;DHT22;38013;48.810;8.818;2023-04-15T13:31:51;15.60;49.30
50548;DHT22;38013;48.810;8.818;2023-04-15T13:34:18;15.60;49.70
50548;DHT22;38013;48.810;8.818;2023-04-15T13:36:45;15.50;49.00
50548;DHT22;38013;48.810;8.818;2023-04-15T13:39:12;15.40;48.00
50548;DHT22;38013;48.810;8.818;2023-04-15T13:41:39;15.30;47.60
50548;DHT22;38013;48.810;8.818;2023-04-15T13:44:08;15.20;48.00
50548;DHT22;38013;48.810;8.818;2023-04-15T13:46:35;15.10;47.60
50548;DHT22;38013;48.810;8.818;2023-04-15T13:49:03;15.00;47.40
50548;DHT22;38013;48.810;8.818;2023-04-15T13:51:30;14.90;47.50
50548;DHT22;38013;48.810;8.818;2023-04-15T13:53:58;14.80;47.90
50548;DHT22;38013;48.810;8.818;2023-04-15T13:56:34;14.60;47.80
50548;DHT22;38013;48.810;8.818;2023-04-15T13:59:08;14.50;47.90
50548;DHT22;38013;48.810;8.818;2023-04-15T14:01:35;14.40;47.90
50548;DHT22;38013;48.810;8.818;2023-04-15T14:04:03;14.30;48.40
50548;DHT22;38013;48.810;8.818;2023-04-15T14:06:31;14.30;48.70
50548;DHT22;38013;48.810;8.818;2023-04-15T14:08:59;14.20;48.20
50548;DHT22;38013;48.810;8.818;2023-04-15T14:11:26;14.20;48.20
50548;DHT22;38013;48.810;8.818;2023-04-15T14:13:55;14.20;48.40
50548;DHT22;38013;48.810;8.818;2023-04-15T14:16:33;14.20;47.50
50548;DHT22;38013;48.810;8.818;2023-04-15T14:19:14;14.20;46.90
50548;DHT22;38013;48.810;8.818;2023-04-15T14:21:44;14.20;46.90
50548;DHT22;38013;48.810;8.818;2023-04-15T14:24:12;14.20;47.00
50548;DHT22;38013;48.810;8.818;2023-04-15T14:26:42;14.20;46.80
50548;DHT22;38013;48.810;8.818;2023-04-15T14:29:11;14.10;45.40
50548;DHT22;38013;48.810;8.818;2023-04-15T14:31:41;14.10;46.70
50548;DHT22;38013;48.810;8.818;2023-04-15T14:34:30;14.00;46.80
50548;DHT22;38013;48.810;8.818;2023-04-15T14:36:57;13.90;47.10
50548;DHT22;38013;48.810;8.818;2023-04-15T14:39:25;13.90;47.30
50548;DHT22;38013;48.810;8.818;2023-04-15T14:42:00;13.80;47.20
50548;DHT22;38013;48.810;8.818;2023-04-15T14:44:37;13.70;47.40
50548;DHT22;38013;48.810;8.818;2023-04-15T14:47:06;13.60;47.70
50548;DHT22;38013;48.810;8.818;2023-04-15T14:49:33;13.60;47.80
50548;DHT22;38013;48.810;8.818;2023-04-15T14:52:06;13.50;47.70
50548;DHT22;38013;48.810;8.818;2023-04-15T14:54:32;13.50;48.10
50548;DHT22;38013;48.810;8.818;2023-04-15T14:57:02;13.50;48.30
50548;DHT22;38013;48.810;8.818;2023-04-15T14:59:30;13.40;48.20
50548;DHT22;38013;48.810;8.818;2023-04-15T15:01:57;13.40;48.20
50548;DHT22;38013;48.810;8.818;2023-04-15T15:04:26;13.40;48.50
50548;DHT22;38013;48.810;8.818;2023-04-15T15:06:59;13.30;48.60
50548;DHT22;38013;48.810;8.818;2023-04-15T15:09:27;13.30;48.40
50548;DHT22;38013;48.810;8.818;2023-04-15T15:11:56;13.20;47.90
50548;DHT22;38013;48.810;8.818;2023-04-15T15:14:27;13.30;48.50
50548;DHT22;38013;48.810;8.818;2023-04-15T15:16:54;13.30;48.80
50548;DHT22;38013;48.810;8.818;2023-04-15T15:19:24;13.30;48.90
50548;DHT22;38013;48.810;8.818;2023-04-15T15:21:54;13.30;48.80
50548;DHT22;38013;48.810;8.818;2023-04-15T15:24:22;13.30;48.60
50548;DHT22;38013;48.810;8.818;2023-04-15T15:26:50;13.40;48.30
50548;DHT22;38013;48.810;8.818;2023-04-15T15:29:20;13.40;48.40
50548;DHT22;38013;48.810;8.818;2023-04-15T15:31:47;13.40;48.50
50548;DHT22;38013;48.810;8.818;2023-04-15T15:34:19;13.50;48.40
50548;DHT22;38013;48.810;8.818;2023-04-15T15:36:47;13.50;48.10
50548;DHT22;38013;48.810;8.818;2023-04-15T15:39:17;13.40;48.40
50548;DHT22;38013;48.810;8.818;2023-04-15T15:41:44;13.50;48.60
50548;DHT22;38013;48.810;8.818;2023-04-15T15:44:12;13.50;49.00
50548;DHT22;38013;48.810;8.818;2023-04-15T15:46:39;13.50;48.70
50548;DHT22;38013;48.810;8.818;2023-04-15T15:49:07;13.50;48.30
50548;DHT22;38013;48.810;8.818;2023-04-15T15:51:38;13.40;47.80
50548;DHT22;38013;48.810;8.818;2023-04-15T15:54:05;13.40;47.90
50548;DHT22;38013;48.810;8.818;2023-04-15T15:56:32;13.40;47.90
50548;DHT22;38013;48.810;8.818;2023-04-15T15:59:05;13.30;47.90
50548;DHT22;38013;48.810;8.818;2023-04-15T16:01:33;13.30;48.10
50548;DHT22;38013;48.810;8.818;2023-04-15T16:04:04;13.20;48.10
50548;DHT22;38013;48.810;8.818;2023-04-15T16:06:38;13.20;48.30
50548;DHT22;38013;48.810;8.818;2023-04-15T16:09:06;13.20;48.30
50548;DHT22;38013;48.810;8.818;2023-04-15T16:11:33;13.20;48.60